Time;durP1;ratioP1;P1;durP2;ratioP2;P2;SDS_P1;SDS_P2;PMS_P1;PMS_P2;Temp;Humidity;BMP_temperature;BMP_pressure;BME280_temperature;BME280_humidity;BME280_pressure;Samples;Min_cycle;Max_cycle;Signal;HPM_P1;HPM_P2
2023/08/20 00:00:18;;;;;;;6.15;2.97;;;;;;;20.84;68.01;100315.78;10465639;28;20043;-63
2023/08/20 00:05:21;;;;;;;5.00;2.30;;;;;;;20.87;67.86;100314.63;10464231;28;20159;-63
2023/08/20 00:10:22;;;;;;;5.13;2.13;;;;;;;20.86;67.79;100312.97;10446151;28;20556;-63
2023/08/20 00:15:26;;;;;;;3.65;2.22;;;;;;;20.90;67.74;100320.50;10461614;28;20052;-63
2023/08/20 00:20:28;;;;;;;6.47;2.70;;;;;;;20.92;67.64;100318.53;10461551;28;20400;-63
2023/08/20 00:25:31;;;;;;;4.95;2.35;;;;;;;20.86;67.52;100315.63;10464548;28;20175;-63
2023/08/20 00:30:33;;;;;;;3.58;2.03;;;;;;;20.84;67.75;100313.13;10466917;28;20046;-63
2023/08/20 00:35:35;;;;;;;5.22;2.30;;;;;;;20.80;67.55;100311.75;10478651;28;20048;-63
2023/08/20 00:40:37;;;;;;;5.05;2.45;;;;;;;20.74;67.98;100314.97;10466486;28;20045;-63
2023/08/20 00:45:40;;;;;;;4.85;2.28;;;;;;;20.73;67.90;100320.44;10465409;28;20129;-63
2023/08/20 00:50:43;;;;;;;6.93;2.33;;;;;;;20.70;67.86;100312.78;10447090;28;20036;-63
2023/08/20 00:55:45;;;;;;;6.95;2.35;;;;;;;20.61;68.11;100321.63;10465420;28;20045;-63
2023/08/20 01:00:47;;;;;;;6.90;2.40;;;;;;;20.63;68.03;100322.31;10445529;28;20032;-62
2023/08/20 01:05:57;;;;;;;3.50;2.10;;;;;;;20.54;68.02;100323.16;10444350;28;20102;-63
2023/08/20 01:11:10;;;;;;;;;;;;;;;20.42;68.77;100324.31;10441652;28;20045;-62
2023/08/20 01:16:12;;;;;;;6.03;2.60;;;;;;;20.43;68.18;100321.53;10452299;28;20476;-63
2023/08/20 01:21:36;;;;;;;5.45;2.40;;;;;;;20.29;68.64;100336.09;10433901;28;20131;-62
2023/08/20 01:26:56;;;;;;;5.78;2.15;;;;;;;20.28;68.54;100347.69;10456139;28;20044;-63
2023/08/20 01:31:59;;;;;;;9.40;2.47;;;;;;;20.26;68.45;100348.81;10475677;28;20036;-63
2023/08/20 01:37:01;;;;;;;6.50;2.40;;;;;;;20.19;68.75;100345.06;10478997;28;20052;-63
2023/08/20 01:42:03;;;;;;;4.90;2.72;;;;;;;20.18;68.78;100349.53;10445312;28;20044;-63
2023/08/20 01:47:05;;;;;;;5.53;2.45;;;;;;;20.18;68.42;100346.03;10463107;28;20507;-63
2023/08/20 01:52:07;;;;;;;5.85;2.40;;;;;;;20.13;68.39;100350.97;10445062;28;20445;-62
2023/08/20 01:57:09;;;;;;;5.15;2.40;;;;;;;20.08;68.21;100354.03;10468600;28;20048;-63
2023/08/20 02:02:11;;;;;;;7.57;2.75;;;;;;;20.06;67.99;100357.81;10446309;28;20374;-62
2023/08/20 02:07:13;;;;;;;7.85;2.80;;;;;;;20.04;67.99;100351.78;10459213;28;20048;-62
2023/08/20 02:12:15;;;;;;;9.60;3.10;;;;;;;19.69;68.65;100354.16;10476487;28;20045;-63
2023/08/20 02:17:17;;;;;;;10.20;2.85;;;;;;;19.55;69.04;100355.41;10476871;28;20270;-63
2023/08/20 02:22:20;;;;;;;3.45;1.95;;;;;;;19.63;68.97;100352.91;10476722;28;20052;-63
2023/08/20 02:27:23;;;;;;;8.32;2.33;;;;;;;19.63;68.94;100349.41;10475809;28;20041;-63
2023/08/20 02:32:26;;;;;;;43.03;3.72;;;;;;;19.48;69.46;100341.84;10478303;28;20579;-63
2023/08/20 02:37:28;;;;;;;78.78;5.20;;;;;;;19.37;69.28;100330.53;10458861;28;20097;-62
2023/08/20 02:42:30;;;;;;;43.65;4.00;;;;;;;19.29;69.67;100333.88;10452047;28;20196;-62
2023/08/20 02:47:34;;;;;;;15.05;2.78;;;;;;;19.29;69.75;100328.59;10442534;28;20041;-63
2023/08/20 02:52:37;;;;;;;18.50;2.42;;;;;;;19.24;69.67;100324.66;10476154;28;20508;-62
2023/08/20 02:57:39;;;;;;;8.73;2.17;;;;;;;19.31;69.49;100331.94;10475405;28;20603;-62
2023/08/20 03:02:41;;;;;;;5.03;2.88;;;;;;;19.27;69.58;100325.22;10474865;28;20067;-62
2023/08/20 03:07:44;;;;;;;18.50;3.28;;;;;;;19.00;69.66;100321.50;10451243;28;20043;-62
2023/08/20 03:12:46;;;;;;;6.20;2.60;;;;;;;18.93;69.99;100336.28;10446324;28;20043;-62
2023/08/20 03:17:48;;;;;;;6.72;2.75;;;;;;;19.01;69.78;100347.84;10448700;28;20052;-62
2023/08/20 03:22:50;;;;;;;3.97;2.40;;;;;;;19.10;69.99;100349.75;10471917;28;20045;-62
2023/08/20 03:27:53;;;;;;;3.50;2.15;;;;;;;19.22;69.60;100350.47;10448869;28;20093;-62
2023/08/20 03:32:55;;;;;;;4.00;2.50;;;;;;;19.16;69.33;100343.06;10466507;28;20044;-62
2023/08/20 03:37:57;;;;;;;3.10;1.95;;;;;;;19.15;69.37;100352.84;10444768;28;20499;-63
2023/08/20 03:42:59;;;;;;;10.27;2.22;;;;;;;19.16;69.64;100367.75;10466189;28;20048;-63
2023/08/20 03:48:01;;;;;;;3.50;2.10;;;;;;;19.19;69.29;100366.66;10444738;28;20348;-63
2023/08/20 03:53:04;;;;;;;4.22;2.42;;;;;;;19.15;69.10;100360.78;10465829;28;20143;-63
2023/08/20 03:58:07;;;;;;;4.03;2.30;;;;;;;19.10;69.23;100368.31;10466744;28;20052;-63
2023/08/20 04:03:09;;;;;;;3.58;2.15;;;;;;;19.16;69.29;100374.88;10445258;28;20044;-63
2023/08/20 04:08:11;;;;;;;5.55;2.28;;;;;;;19.10;69.52;100381.56;10463417;28;20091;-63
2023/08/20 04:13:13;;;;;;;5.35;1.70;;;;;;;19.11;69.17;100388.56;10461576;28;20044;-63
2023/08/20 04:18:16;;;;;;;3.35;1.90;;;;;;;19.15;69.10;100389.97;10444181;28;20045;-63
2023/08/20 04:23:19;;;;;;;6.35;2.17;;;;;;;19.20;69.00;100378.94;10464649;28;20049;-63
2023/08/20 04:28:21;;;;;;;26.50;3.67;;;;;;;19.16;69.00;100375.72;10448428;28;20048;-63
2023/08/20 04:33:23;;;;;;;3.75;2.13;;;;;;;19.14;69.41;100388.28;10449628;28;20040;-63
2023/08/20 04:38:26;;;;;;;4.75;2.10;;;;;;;19.19;69.50;100390.53;10480485;28;20052;-62
2023/08/20 04:43:28;;;;;;;4.15;2.28;;;;;;;19.30;69.25;100401.00;10481004;28;20052;-61
2023/08/20 04:48:31;;;;;;;7.28;2.00;;;;;;;19.37;69.24;100395.03;10448368;28;20076;-61
2023/08/20 04:53:33;;;;;;;6.80;2.42;;;;;;;19.46;69.12;100391.56;10447259;28;20048;-62
2023/08/20 04:58:35;;;;;;;34.10;3.53;;;;;;;19.56;69.00;100399.56;10478283;28;20047;-62
2023/08/20 05:03:37;;;;;;;4.43;2.42;;;;;;;19.58;68.81;100404.72;10464455;28;20080;-62
2023/08/20 05:08:39;;;;;;;3.28;2.10;;;;;;;19.69;68.68;100415.19;10461209;28;20056;-62
2023/08/20 05:13:45;;;;;;;4.72;2.00;;;;;;;19.82;68.67;100418.44;10445444;28;20097;-62
2023/08/20 05:18:47;;;;;;;3.33;1.85;;;;;;;19.86;68.52;100433.97;10446161;28;20049;-62
2023/08/20 05:23:50;;;;;;;3.42;1.90;;;;;;;19.99;68.31;100431.88;10461970;28;20633;-64
2023/08/20 05:28:52;;;;;;;4.32;1.98;;;;;;;20.10;68.38;100438.84;10462514;28;20044;-64
2023/08/20 05:33:54;;;;;;;2.88;1.83;;;;;;;20.22;67.96;100445.69;10474710;28;20086;-64
2023/08/20 05:38:56;;;;;;;3.47;2.10;;;;;;;20.22;68.10;100440.38;10467542;28;20047;-65
2023/08/20 05:43:58;;;;;;;6.47;2.30;;;;;;;20.32;68.09;100449.19;10451410;28;20448;-65
2023/08/20 05:49:00;;;;;;;2.63;1.70;;;;;;;20.46;67.79;100437.31;10461105;28;20044;-63
2023/08/20 05:54:07;;;;;;;3.25;1.90;;;;;;;20.49;67.48;100434.34;10445063;28;20344;-63
2023/08/20 05:59:09;;;;;;;4.57;1.77;;;;;;;20.78;66.89;100449.31;10447647;28;20079;-64
2023/08/20 06:04:12;;;;;;;4.88;2.17;;;;;;;21.06;66.28;100440.38;10460000;28;20067;-64
2023/08/20 06:09:14;;;;;;;4.35;2.00;;;;;;;21.07;66.39;100442.03;10463933;28;20392;-64
2023/08/20 06:14:16;;;;;;;3.60;2.00;;;;;;;21.11;66.23;100445.25;10449177;28;20054;-64
2023/08/20 06:19:18;;;;;;;2.97;1.98;;;;;;;21.34;65.93;100454.56;10462606;28;20041;-64
2023/08/20 06:24:20;;;;;;;3.03;1.70;;;;;;;21.56;65.35;100459.47;10466421;28;20078;-64
2023/08/20 06:29:22;;;;;;;5.18;2.00;;;;;;;21.76;65.15;100452.22;10450622;28;20040;-64
2023/08/20 06:34:24;;;;;;;2.90;1.80;;;;;;;21.79;65.01;100447.44;10464585;28;20044;-64
2023/08/20 06:39:26;;;;;;;4.00;2.35;;;;;;;22.14;64.75;100445.78;10469581;28;20477;-65
2023/08/20 06:44:28;;;;;;;3.83;2.25;;;;;;;22.26;64.17;100447.22;10468763;28;20432;-63
2023/08/20 06:49:30;;;;;;;3.42;2.08;;;;;;;22.54;63.98;100452.28;10469855;28;20089;-64
2023/08/20 06:54:32;;;;;;;4.63;2.65;;;;;;;22.81;63.51;100450.50;10470490;28;20394;-64
2023/08/20 06:59:34;;;;;;;3.17;2.13;;;;;;;22.93;63.13;100449.22;10468008;28;20060;-64
2023/08/20 07:04:37;;;;;;;4.53;2.45;;;;;;;22.89;63.03;100453.22;10470878;28;20443;-63
2023/08/20 07:09:39;;;;;;;3.90;2.50;;;;;;;22.76;63.48;100448.28;10483218;28;20040;-64
2023/08/20 07:14:41;;;;;;;4.43;2.53;;;;;;;22.82;63.67;100450.31;10452241;28;20033;-64
2023/08/20 07:19:43;;;;;;;3.60;2.17;;;;;;;22.84;63.56;100453.66;10467312;28;20102;-64
2023/08/20 07:24:45;;;;;;;4.20;2.22;;;;;;;22.97;63.62;100450.59;10469534;28;20292;-64
2023/08/20 07:29:47;;;;;;;6.55;2.78;;;;;;;23.40;63.22;100448.66;10449109;28;20044;-64
2023/08/20 07:34:49;;;;;;;5.43;2.90;;;;;;;23.74;62.06;100450.41;10482282;28;20040;-65
2023/08/20 07:39:51;;;;;;;5.30;2.97;;;;;;;24.33;60.79;100452.06;10465647;28;20040;-65
2023/08/20 07:44:53;;;;;;;4.68;2.83;;;;;;;24.93;59.73;100445.31;10468364;28;20228;-65
2023/08/20 07:49:55;;;;;;;4.85;2.88;;;;;;;25.00;59.08;100440.91;10448955;28;20036;-64
2023/08/20 08:13:22;;;;;;;5.97;3.42;;;;;;;26.80;53.14;100444.00;10424097;27;20201;-63
2023/08/20 08:18:24;;;;;;;6.50;3.25;;;;;;;26.89;53.37;100448.28;10423606;28;20045;-64
2023/08/20 08:23:25;;;;;;;7.95;3.60;;;;;;;27.32;52.63;100445.59;10427031;28;20316;-64
2023/08/20 08:28:27;;;;;;;6.18;3.45;;;;;;;27.74;50.31;100452.13;10423001;28;21053;-65
2023/08/20 08:33:29;;;;;;;7.47;3.80;;;;;;;27.95;50.34;100458.34;10423135;28;20387;-65
2023/08/20 08:38:31;;;;;;;7.25;3.38;;;;;;;28.20;50.30;100458.81;10421919;28;20485;-65
2023/08/20 08:43:33;;;;;;;6.45;3.65;;;;;;;27.97;49.81;100455.50;10428082;28;20045;-65
2023/08/20 08:48:35;;;;;;;8.60;3.60;;;;;;;28.11;49.37;100454.59;10420375;28;20497;-64
2023/08/20 08:53:38;;;;;;;10.25;3.15;;;;;;;28.81;48.58;100452.72;10422475;28;20057;-65
2023/08/20 08:58:40;;;;;;;7.55;2.72;;;;;;;28.98;47.88;100454.13;10423185;28;20049;-65
2023/08/20 09:03:42;;;;;;;4.75;2.92;;;;;;;29.02;47.91;100450.00;10429910;28;20563;-65
2023/08/20 09:08:44;;;;;;;7.80;2.85;;;;;;;29.29;47.54;100440.19;10417348;28;20049;-64
2023/08/20 09:13:46;;;;;;;5.70;3.00;;;;;;;29.16;47.07;100444.66;10417601;28;20042;-64
2023/08/20 09:18:49;;;;;;;5.68;3.20;;;;;;;29.00;46.92;100449.38;10419203;28;20521;-64
2023/08/20 09:23:51;;;;;;;6.75;3.17;;;;;;;28.98;47.30;100443.34;10394431;28;20048;-65
2023/08/20 09:28:56;;;;;;;6.20;3.20;;;;;;;29.02;46.79;100441.94;10390309;28;20044;-65
2023/08/20 09:33:58;;;;;;;6.13;2.97;;;;;;;29.13;46.45;100434.31;10389301;28;20045;-64
2023/08/20 09:39:03;;;;;;;6.32;2.97;;;;;;;29.04;46.49;100426.41;10388372;28;20052;-65
2023/08/20 09:44:06;;;;;;;5.78;2.97;;;;;;;29.21;46.58;100432.28;10392319;28;20053;-66
2023/08/20 09:49:13;;;;;;;7.40;3.10;;;;;;;29.29;45.77;100442.91;10388863;28;20045;-65
2023/08/20 09:54:34;;;;;;;5.25;3.28;;;;;;;29.23;44.84;100440.16;10392297;28;20052;-66
2023/08/20 09:59:38;;;;;;;4.15;2.72;;;;;;;29.40;45.92;100434.25;10394503;28;20128;-65
2023/08/20 10:04:42;;;;;;;6.15;2.95;;;;;;;29.57;45.26;100429.34;10396492;28;20056;-65
2023/08/20 10:09:45;;;;;;;5.20;2.85;;;;;;;29.64;45.11;100430.22;10387433;28;20049;-66
2023/08/20 10:14:48;;;;;;;7.03;2.83;;;;;;;29.76;44.84;100424.00;10380623;28;20049;-65
2023/08/20 10:19:53;;;;;;;5.60;2.67;;;;;;;29.67;43.83;100414.44;10383938;28;20041;-66
2023/08/20 10:24:57;;;;;;;5.53;2.70;;;;;;;29.91;43.61;100423.03;10386267;28;20068;-66
2023/08/20 10:30:00;;;;;;;4.72;2.53;;;;;;;29.70;43.28;100419.41;10419599;28;20596;-66
2023/08/20 10:35:04;;;;;;;3.67;2.30;;;;;;;29.29;43.21;100418.66;10389299;28;20048;-65
2023/08/20 10:40:07;;;;;;;4.78;2.50;;;;;;;29.57;43.36;100413.16;10388885;28;20040;-65
2023/08/20 10:45:10;;;;;;;4.78;2.60;;;;;;;30.05;43.29;100416.63;10388712;28;20394;-65
2023/08/20 10:50:18;;;;;;;3.78;2.45;;;;;;;30.17;41.73;100415.00;10390500;28;20139;-65
2023/08/20 10:55:23;;;;;;;4.53;2.50;;;;;;;29.45;42.50;100406.72;10402844;28;20052;-65
2023/08/20 11:00:28;;;;;;;3.53;2.10;;;;;;;28.98;43.67;100416.41;10390147;28;20467;-65
2023/08/20 11:05:30;;;;;;;4.00;2.40;;;;;;;28.92;43.69;100419.91;10387802;28;20274;-65
2023/08/20 11:10:33;;;;;;;6.53;2.33;;;;;;;28.91;43.70;100409.34;10384850;28;20077;-64
2023/08/20 11:15:35;;;;;;;4.80;2.38;;;;;;;29.21;43.52;100409.91;10422192;28;20578;-65
2023/08/20 11:20:38;;;;;;;4.53;2.60;;;;;;;29.26;43.81;100404.72;10397705;28;20046;-66
2023/08/20 11:25:42;;;;;;;4.10;2.00;;;;;;;29.17;42.75;100408.63;10399699;28;20127;-65
2023/08/20 11:30:46;;;;;;;4.50;2.38;;;;;;;29.27;42.29;100398.31;10396377;28;20791;-65
2023/08/20 11:35:49;;;;;;;4.78;2.38;;;;;;;29.28;42.97;100406.19;10386202;28;20049;-65
2023/08/20 11:40:51;;;;;;;3.58;2.10;;;;;;;29.29;42.09;100407.03;10383671;28;20061;-65
2023/08/20 11:45:54;;;;;;;3.75;1.77;;;;;;;29.14;41.63;100401.78;10386449;28;20092;-65
2023/08/20 11:50:57;;;;;;;4.32;2.28;;;;;;;29.18;41.73;100399.50;10385062;28;20041;-66
2023/08/20 11:55:59;;;;;;;4.85;2.30;;;;;;;29.49;41.92;100402.56;10391619;28;20561;-66
2023/08/20 12:01:08;;;;;;;3.63;2.05;;;;;;;29.88;40.66;100394.59;10382884;28;20059;-66
2023/08/20 12:06:23;;;;;;;4.10;2.20;;;;;;;29.68;39.79;100399.91;10382056;28;20044;-65
2023/08/20 12:11:27;;;;;;;3.80;2.10;;;;;;;30.08;39.66;100398.16;10386972;28;20509;-66
2023/08/20 12:16:30;;;;;;;3.65;1.90;;;;;;;30.42;40.04;100389.00;10385751;28;20053;-64
2023/08/20 12:21:32;;;;;;;3.10;1.95;;;;;;;30.38;39.66;100385.06;10386162;28;20418;-64
2023/08/20 12:26:34;;;;;;;5.13;1.95;;;;;;;30.28;39.65;100379.25;10377627;28;20282;-64
2023/08/20 12:31:36;;;;;;;3.83;2.00;;;;;;;30.24;40.01;100384.25;10382337;28;20045;-63
2023/08/20 12:36:38;;;;;;;3.65;2.00;;;;;;;30.21;40.66;100373.91;10382223;28;20120;-64
2023/08/20 12:41:40;;;;;;;4.22;2.38;;;;;;;30.52;39.88;100363.28;10383753;28;20527;-64
2023/08/20 12:46:42;;;;;;;6.07;2.35;;;;;;;30.43;39.82;100356.44;10394187;28;20549;-64
2023/08/20 12:51:44;;;;;;;2.95;1.70;;;;;;;30.35;40.47;100363.91;10386540;28;20055;-64
2023/08/20 12:56:46;;;;;;;3.47;1.90;;;;;;;30.41;40.00;100353.13;10382834;28;20049;-64
2023/08/20 13:01:48;;;;;;;3.35;1.88;;;;;;;30.36;40.29;100354.75;10399197;28;20034;-65
2023/08/20 13:06:50;;;;;;;4.70;2.22;;;;;;;30.56;40.68;100350.19;10388066;28;20501;-65
2023/08/20 13:11:55;;;;;;;4.50;2.30;;;;;;;30.46;39.68;100353.34;10422406;28;20064;-65
2023/08/20 13:16:57;;;;;;;2.90;1.70;;;;;;;30.42;40.09;100348.53;10388775;28;20476;-65
2023/08/20 13:21:59;;;;;;;4.57;2.03;;;;;;;30.13;39.82;100347.09;10397899;28;20053;-65
2023/08/20 13:27:01;;;;;;;3.53;2.10;;;;;;;30.27;40.42;100351.47;10379075;28;20530;-65
2023/08/20 13:32:03;;;;;;;4.35;2.08;;;;;;;30.48;40.54;100347.72;10389347;28;20048;-64
2023/08/20 13:37:06;;;;;;;3.70;1.85;;;;;;;30.63;40.16;100340.22;10387517;28;20533;-65
2023/08/20 13:42:08;;;;;;;5.13;2.00;;;;;;;31.04;39.74;100342.59;10402568;28;20050;-65
2023/08/20 13:47:10;;;;;;;10.45;2.40;;;;;;;31.00;39.69;100341.38;10384480;28;20049;-65
2023/08/20 13:52:11;;;;;;;3.40;1.90;;;;;;;30.72;39.37;100332.72;10425396;28;20045;-65
2023/08/20 13:57:13;;;;;;;4.40;2.20;;;;;;;30.68;39.51;100327.72;10418502;28;20045;-65
2023/08/20 14:02:15;;;;;;;4.93;2.20;;;;;;;30.95;39.55;100327.63;10392561;28;20409;-65
2023/08/20 14:07:18;;;;;;;3.05;1.80;;;;;;;30.87;39.24;100317.91;10387082;28;20049;-65
2023/08/20 14:12:20;;;;;;;3.80;2.03;;;;;;;30.91;39.03;100313.75;10388955;28;20111;-65
2023/08/20 14:17:22;;;;;;;3.05;2.03;;;;;;;30.84;39.45;100312.13;10385361;28;20532;-66
2023/08/20 14:22:25;;;;;;;2.83;1.80;;;;;;;30.99;39.12;100315.38;10433081;28;20637;-66
2023/08/20 14:27:27;;;;;;;4.45;2.05;;;;;;;31.04;38.42;100307.50;10417441;28;20057;-66
2023/08/20 14:32:29;;;;;;;2.58;1.60;;;;;;;31.29;37.80;100308.41;10392098;28;20052;-65
2023/08/20 14:37:31;;;;;;;3.22;1.85;;;;;;;31.12;38.09;100299.97;10382330;28;20045;-64
2023/08/20 14:42:33;;;;;;;3.58;1.83;;;;;;;31.05;39.23;100299.16;10391579;28;20041;-65
2023/08/20 14:47:36;;;;;;;4.72;2.00;;;;;;;31.15;39.07;100299.53;10396567;28;20053;-64
2023/08/20 14:52:38;;;;;;;2.80;1.80;;;;;;;31.38;38.41;100296.28;10387462;28;20194;-65
2023/08/20 14:57:41;;;;;;;3.38;1.80;;;;;;;31.40;38.68;100286.06;10394257;28;20075;-65
2023/08/20 15:02:53;;;;;;;3.08;1.65;;;;;;;31.39;38.39;100287.13;10392021;28;20575;-65
2023/08/20 15:07:55;;;;;;;3.00;1.90;;;;;;;31.39;38.30;100284.44;10382574;28;20108;-65
2023/08/20 15:12:57;;;;;;;3.90;2.05;;;;;;;31.29;37.82;100287.59;10391462;28;20296;-65
2023/08/20 15:17:59;;;;;;;4.05;1.77;;;;;;;31.44;38.35;100280.00;10381300;28;20041;-66
2023/08/20 15:23:01;;;;;;;3.30;1.80;;;;;;;31.56;38.12;100285.56;10388080;28;20033;-66
2023/08/20 15:28:04;;;;;;;3.47;2.03;;;;;;;31.78;37.74;100277.94;10414800;28;20041;-66
2023/08/20 15:33:06;;;;;;;5.80;1.85;;;;;;;31.79;38.15;100279.56;10385186;28;20041;-65
2023/08/20 15:38:12;;;;;;;6.03;2.17;;;;;;;31.66;37.34;100275.09;10385793;28;20053;-65
2023/08/20 15:43:15;;;;;;;3.90;1.90;;;;;;;31.77;37.38;100274.38;10386851;28;20045;-65
2023/08/20 15:48:17;;;;;;;4.97;1.88;;;;;;;32.15;37.23;100272.41;10380024;28;20045;-65
2023/08/20 15:53:20;;;;;;;3.10;1.85;;;;;;;32.35;37.56;100283.03;10417540;28;20521;-65
2023/08/20 15:58:23;;;;;;;4.15;1.73;;;;;;;32.52;36.64;100275.16;10381657;28;20488;-66
2023/08/20 16:03:27;;;;;;;4.00;1.75;;;;;;;32.32;36.35;100278.06;10386497;28;20057;-65
2023/08/20 16:08:29;;;;;;;3.50;1.60;;;;;;;32.08;36.24;100270.81;10379280;28;20416;-65
2023/08/20 16:13:32;;;;;;;4.07;1.48;;;;;;;32.03;36.09;100267.94;10395343;28;20402;-65
2023/08/20 16:18:34;;;;;;;2.75;1.60;;;;;;;31.96;36.23;100267.16;10378226;28;20056;-65
2023/08/20 16:23:36;;;;;;;3.05;1.73;;;;;;;31.66;36.12;100260.78;10388522;28;20328;-65
2023/08/20 16:28:41;;;;;;;3.33;1.98;;;;;;;31.39;36.75;100269.00;10379467;28;20045;-65
2023/08/20 16:33:43;;;;;;;3.70;1.80;;;;;;;31.20;37.63;100271.84;10388783;28;20065;-65
2023/08/20 16:38:46;;;;;;;2.78;1.70;;;;;;;31.23;38.65;100266.84;10383669;28;20505;-65
2023/08/20 16:43:48;;;;;;;2.47;1.60;;;;;;;31.03;39.16;100258.03;10423928;28;20052;-64
2023/08/20 16:48:50;;;;;;;3.55;1.90;;;;;;;30.93;38.60;100264.91;10387429;28;20482;-65
2023/08/20 16:53:52;;;;;;;3.05;1.75;;;;;;;30.70;38.89;100264.59;10400599;28;20049;-65
2023/08/20 16:58:54;;;;;;;3.10;1.70;;;;;;;30.67;38.73;100266.69;10384721;28;20521;-65
2023/08/20 17:03:57;;;;;;;4.95;1.80;;;;;;;30.46;39.70;100264.25;10391146;28;20053;-65
2023/08/20 17:09:04;;;;;;;2.90;1.70;;;;;;;30.37;40.26;100262.81;10379571;28;20196;-65
2023/08/20 17:14:06;;;;;;;4.00;1.90;;;;;;;30.32;40.39;100268.00;10393164;28;20049;-65
2023/08/20 17:19:08;;;;;;;3.25;1.73;;;;;;;30.26;41.14;100270.72;10386175;28;20610;-65
2023/08/20 17:24:10;;;;;;;3.53;1.80;;;;;;;30.24;41.54;100262.00;10386659;28;20052;-65
2023/08/20 17:29:13;;;;;;;3.45;1.95;;;;;;;30.15;41.57;100263.28;10383932;28;20037;-65
2023/08/20 17:34:15;;;;;;;3.83;1.90;;;;;;;29.91;42.14;100259.31;10389933;28;20049;-64
2023/08/20 17:39:18;;;;;;;3.88;1.70;;;;;;;29.58;42.47;100264.72;10386684;28;20049;-65
2023/08/20 17:44:20;;;;;;;5.50;2.33;;;;;;;29.23;43.53;100271.28;10391401;28;20046;-65
2023/08/20 17:49:22;;;;;;;4.22;2.10;;;;;;;29.09;43.94;100272.28;10381558;28;20042;-65
2023/08/20 17:54:24;;;;;;;3.30;1.83;;;;;;;28.87;44.74;100271.56;10397010;28;20048;-65
2023/08/20 17:59:26;;;;;;;5.32;1.70;;;;;;;28.62;45.53;100278.50;10386489;28;20045;-65
2023/08/20 18:04:28;;;;;;;3.85;1.85;;;;;;;28.37;45.88;100281.84;10394132;28;20136;-65
2023/08/20 18:09:35;;;;;;;3.22;1.90;;;;;;;28.17;46.40;100295.16;10385463;28;20045;-65
2023/08/20 18:14:37;;;;;;;4.88;2.47;;;;;;;27.96;46.57;100292.50;10385224;28;20405;-65
2023/08/20 18:19:39;;;;;;;5.85;2.53;;;;;;;27.74;46.95;100304.31;10385198;28;20049;-65
2023/08/20 18:24:44;;;;;;;3.45;1.80;;;;;;;27.52;47.67;100311.53;10389082;28;20065;-65
2023/08/20 18:29:48;;;;;;;3.55;2.00;;;;;;;27.28;48.23;100314.56;10381291;28;20328;-66
2023/08/20 18:34:50;;;;;;;4.80;2.08;;;;;;;27.09;48.61;100321.34;10396932;28;20045;-65
2023/08/20 18:39:52;;;;;;;5.03;1.90;;;;;;;26.92;49.03;100329.78;10383422;28;20361;-65
2023/08/20 18:44:54;;;;;;;3.95;1.90;;;;;;;26.74;49.36;100335.56;10387973;28;20045;-65
2023/08/20 18:49:57;;;;;;;4.28;2.10;;;;;;;26.54;50.00;100342.47;10378227;28;20055;-65
2023/08/20 18:54:59;;;;;;;5.53;2.10;;;;;;;26.39;50.51;100355.00;10387395;28;20494;-65
2023/08/20 19:00:05;;;;;;;4.15;1.92;;;;;;;26.30;50.99;100358.81;10386475;28;20514;-64
2023/08/20 19:05:07;;;;;;;3.10;1.80;;;;;;;26.11;51.54;100372.72;10378592;28;20038;-65
2023/08/20 19:10:09;;;;;;;3.63;2.00;;;;;;;25.84;52.43;100376.75;10409818;28;20121;-64
2023/08/20 19:15:11;;;;;;;4.53;1.92;;;;;;;25.66;52.43;100379.72;10387058;28;20054;-64
2023/08/20 19:20:13;;;;;;;4.93;2.40;;;;;;;25.64;52.52;100383.59;10374909;28;20471;-64
2023/08/20 19:25:15;;;;;;;5.13;2.10;;;;;;;25.57;52.86;100388.00;10390933;28;20048;-64
2023/08/20 19:30:17;;;;;;;3.90;2.03;;;;;;;25.38;53.50;100386.59;10391633;28;20041;-64
2023/08/20 19:35:21;;;;;;;3.63;2.00;;;;;;;25.27;53.76;100394.97;10389320;28;20928;-64
2023/08/20 19:40:37;;;;;;;3.83;2.13;;;;;;;25.17;53.79;100399.72;10389037;28;20045;-65
2023/08/20 19:45:40;;;;;;;6.32;2.28;;;;;;;25.14;53.94;100405.44;10388534;28;20041;-64
2023/08/20 19:50:42;;;;;;;4.97;2.22;;;;;;;24.95;54.49;100414.69;10388598;28;20425;-64
2023/08/20 19:55:44;;;;;;;4.43;2.38;;;;;;;24.84;54.73;100419.56;10389844;28;20045;-64
2023/08/20 20:00:46;;;;;;;4.68;2.90;;;;;;;24.85;53.71;100419.41;10397290;28;20051;-65
2023/08/20 20:05:48;;;;;;;5.72;3.33;;;;;;;24.91;53.67;100424.06;10394347;28;20037;-65
2023/08/20 20:10:52;;;;;;;5.93;2.40;;;;;;;24.81;54.71;100428.78;10387791;28;20138;-64
2023/08/20 20:15:54;;;;;;;5.53;2.00;;;;;;;24.62;55.32;100429.13;10386373;28;20057;-64
2023/08/20 20:20:56;;;;;;;5.78;2.75;;;;;;;24.53;55.67;100432.78;10387067;28;20498;-64
2023/08/20 20:25:59;;;;;;;5.50;2.05;;;;;;;24.33;56.24;100433.34;10388910;28;20042;-64
2023/08/20 20:31:01;;;;;;;4.00;2.30;;;;;;;24.17;56.69;100439.50;10386674;28;20071;-64
2023/08/20 20:36:04;;;;;;;6.28;2.65;;;;;;;24.03;56.98;100429.44;10368764;28;20069;-64
2023/08/20 20:41:11;;;;;;;6.68;2.40;;;;;;;24.05;57.02;100430.94;10391361;28;21038;-64
2023/08/20 20:46:16;;;;;;;4.35;2.30;;;;;;;24.04;56.93;100439.94;10393974;28;20045;-64
2023/08/20 20:51:18;;;;;;;5.55;2.40;;;;;;;23.95;57.31;100451.66;10396473;28;20052;-64
2023/08/20 20:56:22;;;;;;;5.03;2.22;;;;;;;23.74;57.82;100455.75;10385069;28;20069;-64
2023/08/20 21:01:24;;;;;;;5.75;2.92;;;;;;;23.67;58.09;100452.94;10428123;28;20350;-65
2023/08/20 21:06:26;;;;;;;4.93;2.65;;;;;;;23.56;58.29;100455.03;10390888;28;20500;-64
2023/08/20 21:11:30;;;;;;;9.73;3.03;;;;;;;23.47;58.40;100462.22;10389809;28;20156;-64
2023/08/20 21:16:33;;;;;;;4.18;2.55;;;;;;;23.48;58.33;100464.72;10391652;28;21233;-64
2023/08/20 21:21:39;;;;;;;4.75;2.60;;;;;;;23.39;58.70;100459.47;10391954;28;20067;-64
2023/08/20 21:26:41;;;;;;;4.88;2.40;;;;;;;23.19;58.88;100456.22;10405345;28;20050;-65
2023/08/20 21:31:43;;;;;;;4.00;2.58;;;;;;;23.08;59.33;100456.50;10394262;28;20038;-64
2023/08/20 21:36:45;;;;;;;6.18;2.70;;;;;;;23.03;59.48;100461.47;10396547;28;20056;-64
2023/08/20 21:41:48;;;;;;;6.43;2.72;;;;;;;22.93;59.77;100468.75;10400633;28;20119;-64
2023/08/20 21:46:54;;;;;;;7.70;2.85;;;;;;;22.94;60.06;100473.09;10390896;28;20505;-64
2023/08/20 21:51:56;;;;;;;4.82;2.90;;;;;;;22.76;60.44;100468.81;10403329;28;20057;-64
2023/08/20 21:56:58;;;;;;;4.68;2.55;;;;;;;22.62;60.78;100479.00;10396074;28;20045;-64
2023/08/20 22:02:00;;;;;;;4.80;2.72;;;;;;;22.65;60.58;100477.88;10391355;28;20046;-64
2023/08/20 22:07:02;;;;;;;6.88;3.20;;;;;;;22.63;60.65;100483.38;10390785;28;20041;-64
2023/08/20 22:12:04;;;;;;;6.18;2.72;;;;;;;22.60;60.75;100483.66;10391065;28;20417;-65
2023/08/20 22:17:06;;;;;;;5.22;2.55;;;;;;;22.52;60.98;100485.41;10396073;28;20037;-64
2023/08/20 22:22:08;;;;;;;7.32;2.97;;;;;;;22.50;61.12;100482.06;10394170;28;20068;-65
2023/08/20 22:27:10;;;;;;;5.55;2.78;;;;;;;22.46;61.22;100481.53;10400494;28;20052;-64
2023/08/20 22:32:12;;;;;;;5.82;3.05;;;;;;;22.43;61.25;100486.34;10431455;28;20049;-62
2023/08/20 22:37:14;;;;;;;5.53;2.83;;;;;;;22.40;61.40;100494.66;10398631;28;20084;-65
2023/08/20 22:42:17;;;;;;;6.03;2.83;;;;;;;22.16;61.75;100502.41;10390786;28;20047;-65
2023/08/20 22:47:18;;;;;;;4.25;2.75;;;;;;;22.24;61.79;100500.69;10397870;28;20084;-64
2023/08/20 22:52:21;;;;;;;6.65;2.85;;;;;;;22.30;61.88;100494.75;10397532;28;20052;-65
2023/08/20 22:57:23;;;;;;;4.57;2.53;;;;;;;22.23;62.22;100498.16;10392555;28;20048;-65
2023/08/20 23:02:25;;;;;;;5.38;2.75;;;;;;;22.18;62.34;100493.28;10401259;28;20049;-64
2023/08/20 23:07:27;;;;;;;4.93;2.90;;;;;;;22.07;62.49;100490.84;10392078;28;20462;-65
2023/08/20 23:12:29;;;;;;;5.38;2.83;;;;;;;22.09;62.38;100496.03;10392331;28;20509;-66
2023/08/20 23:17:31;;;;;;;6.13;2.78;;;;;;;22.11;62.44;100497.53;10390919;28;20056;-64
2023/08/20 23:22:33;;;;;;;9.00;3.10;;;;;;;22.11;62.23;100504.72;10391845;28;20505;-64
2023/08/20 23:27:35;;;;;;;7.25;3.20;;;;;;;22.09;62.28;100493.38;10391796;28;20520;-65